Time;durP1;ratioP1;P1;durP2;ratioP2;P2;SDS_P1;SDS_P2;PMS_P1;PMS_P2;Temp;Humidity;BMP_temperature;BMP_pressure;BME280_temperature;BME280_humidity;BME280_pressure;Samples;Min_cycle;Max_cycle;Signal;HPM_P1;HPM_P2
2022/10/05 05:00:23;;;;;;;6.90;6.10;;;12.40;97.20;;;;;;1707195;29;20182;-74
2022/10/05 05:01:30;;;;;;;6.75;6.05;;;12.40;97.20;;;;;;1709317;28;20199;-75
2022/10/05 05:02:31;;;;;;;7.13;6.25;;;12.40;97.20;;;;;;1709802;28;20592;-75
2022/10/05 05:03:44;;;;;;;5.95;5.43;;;12.40;97.20;;;;;;1707487;29;20206;-74
2022/10/05 05:04:48;;;;;;;6.85;6.25;;;12.30;97.20;;;;;;1707959;28;20203;-75
2022/10/05 05:05:48;;;;;;;7.38;6.70;;;12.30;97.20;;;;;;1708004;28;20202;-75
2022/10/05 05:06:46;;;;;;;6.82;6.22;;;12.30;97.20;;;;;;1707908;28;20228;-75
2022/10/05 05:07:46;;;;;;;6.50;5.90;;;12.30;97.20;;;;;;1708039;29;20211;-75
2022/10/05 05:09:00;;;;;;;6.65;6.05;;;12.30;97.20;;;;;;1708116;28;20205;-75
2022/10/05 05:10:14;;;;;;;6.63;6.03;;;12.30;97.20;;;;;;1707531;29;20217;-74
2022/10/05 05:11:17;;;;;;;6.50;5.90;;;12.30;97.20;;;;;;1693691;29;20593;-74
2022/10/05 05:12:22;;;;;;;6.18;5.68;;;12.30;97.20;;;;;;1706095;28;20218;-75
2022/10/05 05:13:32;;;;;;;6.40;5.80;;;12.30;97.20;;;;;;1708002;29;20217;-75
2022/10/05 05:14:37;;;;;;;7.07;5.88;;;12.20;97.20;;;;;;1708021;29;20203;-75
2022/10/05 05:15:43;;;;;;;6.65;6.07;;;12.20;97.20;;;;;;1705936;29;20231;-75
2022/10/05 05:16:37;;;;;;;6.63;5.90;;;12.20;97.20;;;;;;1707877;28;20296;-75
2022/10/05 05:17:48;;;;;;;6.93;6.25;;;12.20;97.20;;;;;;1707963;28;20214;-75
2022/10/05 05:19:02;;;;;;;6.78;6.18;;;12.20;97.20;;;;;;1708011;29;20218;-73
2022/10/05 05:20:05;;;;;;;6.18;5.65;;;12.20;97.20;;;;;;1707489;29;20202;-75
2022/10/05 05:21:03;;;;;;;6.93;6.32;;;12.20;97.20;;;;;;1707564;29;20731;-74
2022/10/05 05:22:02;;;;;;;6.88;5.70;;;12.10;97.20;;;;;;1707776;29;20194;-75
2022/10/05 05:23:04;;;;;;;6.53;5.78;;;12.10;97.20;;;;;;1707950;29;20209;-75
2022/10/05 05:24:03;;;;;;;6.75;6.15;;;12.10;97.20;;;;;;1707967;28;20206;-75
2022/10/05 05:25:05;;;;;;;6.38;5.78;;;12.10;97.20;;;;;;1708074;28;20621;-74
2022/10/05 05:26:07;;;;;;;6.13;5.65;;;12.10;97.20;;;;;;1707930;29;20237;-74
2022/10/05 05:27:30;;;;;;;6.93;5.85;;;12.10;97.20;;;;;;1707710;28;20234;-74
2022/10/05 05:28:30;;;;;;;6.85;6.25;;;12.10;97.20;;;;;;1707850;29;20203;-75
2022/10/05 05:29:31;;;;;;;6.72;6.15;;;12.10;97.20;;;;;;1707797;29;20210;-74
2022/10/05 05:30:25;;;;;;;7.10;6.38;;;12.10;97.20;;;;;;1700709;29;20282;-75
2022/10/05 05:31:26;;;;;;;7.47;6.03;;;12.10;97.20;;;;;;1698485;29;20232;-75
2022/10/05 05:32:27;;;;;;;6.22;5.63;;;12.10;97.20;;;;;;1697172;29;20716;-75
2022/10/05 05:33:21;;;;;;;10.95;6.18;;;12.10;97.20;;;;;;1688127;29;21236;-75
2022/10/05 05:34:30;;;;;;;8.60;6.10;;;12.10;97.20;;;;;;1688094;29;20201;-75
2022/10/05 05:35:45;;;;;;;6.03;5.43;;;12.10;97.20;;;;;;1687979;29;21107;-73
2022/10/05 05:36:53;;;;;;;7.07;6.45;;;12.10;97.20;;;;;;1686758;29;20279;-73
2022/10/05 05:37:52;;;;;;;7.47;5.80;;;12.00;97.20;;;;;;1685645;29;20212;-75
2022/10/05 05:38:51;;;;;;;6.50;6.00;;;12.00;97.20;;;;;;1691178;29;20208;-74
2022/10/05 05:39:53;;;;;;;6.55;6.05;;;12.10;97.20;;;;;;1691147;29;20228;-74
2022/10/05 05:40:50;;;;;;;6.30;5.70;;;12.00;97.20;;;;;;1687520;29;20956;-74
2022/10/05 05:41:53;;;;;;;8.45;5.57;;;12.00;97.20;;;;;;1688079;29;20284;-74
2022/10/05 05:42:53;;;;;;;6.20;5.63;;;12.00;97.20;;;;;;1688146;29;20730;-74
2022/10/05 05:44:00;;;;;;;6.63;6.03;;;12.00;97.20;;;;;;1688106;29;20219;-75
2022/10/05 05:44:55;;;;;;;7.20;6.50;;;12.00;97.20;;;;;;1688133;29;20626;-74
2022/10/05 05:45:56;;;;;;;6.47;5.00;;;12.00;97.20;;;;;;1688172;29;20213;-74
2022/10/05 05:46:58;;;;;;;5.85;5.35;;;11.90;97.20;;;;;;1687557;29;20232;-74
2022/10/05 05:47:52;;;;;;;6.13;5.38;;;11.90;97.20;;;;;;1688189;29;20655;-74
2022/10/05 05:48:47;;;;;;;6.75;6.10;;;11.90;97.20;;;;;;1687752;29;20260;-74
2022/10/05 05:49:50;;;;;;;6.03;5.53;;;11.90;97.20;;;;;;1688047;29;20623;-75
2022/10/05 05:50:51;;;;;;;6.75;6.25;;;11.90;97.20;;;;;;1688028;29;20583;-74
2022/10/05 05:51:49;;;;;;;7.57;5.50;;;11.90;97.20;;;;;;1688049;29;20213;-74
2022/10/05 05:52:45;;;;;;;6.68;6.10;;;12.00;97.20;;;;;;1687782;29;20232;-74
2022/10/05 05:53:39;;;;;;;6.72;6.13;;;12.00;97.20;;;;;;1688150;29;20215;-74
2022/10/05 05:54:36;;;;;;;8.10;7.40;;;12.00;97.20;;;;;;1688035;29;20205;-74
2022/10/05 05:55:34;;;;;;;7.65;6.95;;;12.00;97.20;;;;;;1688011;29;20220;-74
2022/10/05 05:56:32;;;;;;;8.52;7.72;;;12.00;97.20;;;;;;1688180;29;20578;-74
2022/10/05 05:57:28;;;;;;;7.70;7.00;;;12.00;97.20;;;;;;1687903;29;20209;-74
2022/10/05 05:58:25;;;;;;;8.70;7.90;;;12.00;97.20;;;;;;1688212;29;20185;-74
2022/10/05 05:59:20;;;;;;;10.18;6.90;;;12.00;97.20;;;;;;1694058;29;20209;-73
2022/10/05 06:00:20;;;;;;;8.13;7.45;;;12.10;97.20;;;;;;1693926;29;20212;-73
2022/10/05 06:01:21;;;;;;;8.32;7.53;;;12.10;97.20;;;;;;1694423;29;20227;-73
2022/10/05 06:02:17;;;;;;;9.02;8.25;;;12.10;97.20;;;;;;1694542;29;20283;-74
2022/10/05 06:03:14;;;;;;;8.25;7.53;;;12.10;97.20;;;;;;1691476;29;20209;-74
2022/10/05 06:04:14;;;;;;;7.65;7.05;;;12.20;97.20;;;;;;1687980;29;20193;-74
2022/10/05 06:05:18;;;;;;;8.57;7.78;;;12.20;97.20;;;;;;1687636;29;20208;-73
2022/10/05 06:06:12;;;;;;;7.90;7.30;;;12.20;97.20;;;;;;1687670;29;20201;-74
2022/10/05 06:07:04;;;;;;;8.10;7.45;;;12.20;97.20;;;;;;1687776;29;20204;-74
2022/10/05 06:07:58;;;;;;;8.63;7.93;;;12.20;97.20;;;;;;1688050;29;20208;-73
2022/10/05 06:08:52;;;;;;;9.50;8.65;;;12.30;97.20;;;;;;1687979;29;20219;-74
2022/10/05 06:09:50;;;;;;;10.23;9.20;;;12.30;97.20;;;;;;1687936;29;20260;-74
2022/10/05 06:10:47;;;;;;;9.35;8.43;;;12.30;97.20;;;;;;1687809;29;20603;-74
2022/10/05 06:11:43;;;;;;;9.32;8.43;;;12.30;97.20;;;;;;1688265;29;20652;-74
2022/10/05 06:12:40;;;;;;;8.43;7.72;;;12.30;97.20;;;;;;1687902;29;20215;-74
2022/10/05 06:13:35;;;;;;;9.13;8.20;;;12.30;97.20;;;;;;1688032;29;20193;-74
2022/10/05 06:14:32;;;;;;;9.70;8.65;;;12.40;97.20;;;;;;1687682;29;20216;-74
2022/10/05 06:15:32;;;;;;;9.10;8.20;;;12.40;97.20;;;;;;1688086;29;20218;-74
2022/10/05 06:16:30;;;;;;;10.93;9.82;;;12.40;97.20;;;;;;1687288;29;20205;-74
2022/10/05 06:17:28;;;;;;;9.90;8.80;;;12.50;97.20;;;;;;1687144;29;20663;-74
2022/10/05 06:18:21;;;;;;;10.07;9.07;;;12.50;97.20;;;;;;1687476;29;20200;-75
2022/10/05 06:19:16;;;;;;;10.45;9.35;;;12.50;97.20;;;;;;1687237;29;20200;-76
2022/10/05 06:20:22;;;;;;;9.82;8.85;;;12.50;97.20;;;;;;1686831;29;20216;-76
2022/10/05 06:21:20;;;;;;;9.98;9.05;;;12.60;97.20;;;;;;1687215;29;20200;-76
2022/10/05 06:22:16;;;;;;;10.20;9.20;;;12.60;97.20;;;;;;1687551;29;20601;-75
2022/10/05 06:23:15;;;;;;;10.57;9.32;;;12.60;97.20;;;;;;1687379;29;20579;-76
2022/10/05 06:24:14;;;;;;;11.10;9.48;;;12.70;97.20;;;;;;1687394;29;20208;-76
2022/10/05 06:25:19;;;;;;;11.25;10.25;;;12.70;97.20;;;;;;1687585;29;20584;-74
2022/10/05 06:26:23;;;;;;;10.68;9.77;;;12.70;97.20;;;;;;1687833;29;20671;-74
2022/10/05 06:27:26;;;;;;;10.88;9.88;;;12.80;97.20;;;;;;1687819;29;20325;-74
2022/10/05 06:28:18;;;;;;;11.10;10.10;;;12.80;97.20;;;;;;1688134;29;20577;-75
2022/10/05 06:29:16;;;;;;;10.90;9.93;;;12.80;97.20;;;;;;1687661;29;20260;-74
2022/10/05 06:30:11;;;;;;;10.07;9.18;;;12.90;97.20;;;;;;1686924;29;20232;-75
2022/10/05 06:31:12;;;;;;;10.70;9.70;;;12.90;97.20;;;;;;1687532;29;20236;-74
2022/10/05 06:32:08;;;;;;;11.32;10.32;;;12.90;97.20;;;;;;1687965;29;20208;-75
2022/10/05 06:33:12;;;;;;;11.52;10.07;;;13.00;97.20;;;;;;1687901;29;20607;-75
2022/10/05 06:34:17;;;;;;;13.30;9.70;;;13.00;97.20;;;;;;1687539;29;20590;-75
2022/10/05 06:35:19;;;;;;;10.68;9.63;;;13.00;97.20;;;;;;1687975;29;20208;-75
2022/10/05 06:36:31;;;;;;;10.35;9.45;;;13.10;97.20;;;;;;1687551;29;20243;-75
2022/10/05 06:37:30;;;;;;;10.43;9.43;;;13.10;97.20;;;;;;1680722;29;20209;-76
2022/10/05 06:38:37;;;;;;;10.20;9.40;;;13.10;97.20;;;;;;1681584;29;20210;-75
2022/10/05 06:39:55;;;;;;;10.82;9.82;;;13.20;97.20;;;;;;1681523;29;20197;-75
2022/10/05 06:41:01;;;;;;;11.18;9.20;;;13.20;97.20;;;;;;1681456;29;20631;-75
2022/10/05 06:42:21;;;;;;;10.18;9.10;;;13.30;97.20;;;;;;1681518;29;20213;-75
2022/10/05 06:43:40;;;;;;;10.48;9.48;;;13.30;97.20;;;;;;1681562;29;20677;-75
2022/10/05 06:44:42;;;;;;;9.07;8.18;;;13.40;97.20;;;;;;1681488;29;20205;-75
2022/10/05 06:45:51;;;;;;;9.55;8.75;;;13.40;97.20;;;;;;1685212;29;20595;-75
2022/10/05 06:46:53;;;;;;;9.45;8.55;;;13.40;97.20;;;;;;1687939;29;20276;-75
2022/10/05 06:47:48;;;;;;;9.07;8.23;;;13.50;97.20;;;;;;1688059;29;20209;-74
2022/10/05 06:48:53;;;;;;;8.60;7.80;;;13.50;97.20;;;;;;1687933;29;20205;-75
2022/10/05 06:49:51;;;;;;;8.43;7.72;;;13.50;97.20;;;;;;1687956;29;20244;-75
2022/10/05 06:50:47;;;;;;;9.50;8.70;;;13.60;97.20;;;;;;1687786;29;20239;-75
2022/10/05 06:51:45;;;;;;;10.10;9.13;;;13.60;97.20;;;;;;1687805;29;20251;-75
2022/10/05 06:52:46;;;;;;;9.68;8.77;;;13.70;97.20;;;;;;1687953;29;20207;-75
2022/10/05 06:53:45;;;;;;;9.95;8.60;;;13.70;97.20;;;;;;1687531;29;20585;-75
2022/10/05 06:54:46;;;;;;;9.35;8.45;;;13.70;97.20;;;;;;1687804;29;20275;-74
2022/10/05 06:55:47;;;;;;;9.30;8.50;;;13.80;97.20;;;;;;1687926;29;20208;-75
2022/10/05 06:56:44;;;;;;;9.30;8.40;;;13.80;97.20;;;;;;1687856;29;20663;-75
2022/10/05 06:57:58;;;;;;;8.98;8.27;;;13.80;97.20;;;;;;1687913;29;20212;-75
2022/10/05 06:58:57;;;;;;;9.90;9.00;;;13.90;97.20;;;;;;1687547;29;20268;-75
2022/10/05 06:59:55;;;;;;;9.77;8.93;;;13.90;97.20;;;;;;1687567;29;20695;-75
2022/10/05 07:00:52;;;;;;;9.80;8.98;;;13.90;97.20;;;;;;1687797;29;20227;-73
2022/10/05 07:01:53;;;;;;;9.50;8.70;;;14.00;97.20;;;;;;1687779;29;20227;-73
2022/10/05 07:02:53;;;;;;;8.98;8.20;;;14.00;97.20;;;;;;1687849;29;20211;-73
2022/10/05 07:04:01;;;;;;;8.70;7.90;;;14.10;97.20;;;;;;1687849;29;20204;-75
2022/10/05 07:05:10;;;;;;;10.35;7.90;;;14.10;97.20;;;;;;1687822;29;20220;-75
2022/10/05 07:06:15;;;;;;;8.75;7.95;;;14.10;97.20;;;;;;1687891;29;20240;-75
2022/10/05 07:07:15;;;;;;;8.05;7.40;;;14.10;97.20;;;;;;1687749;29;20208;-75
2022/10/05 07:08:11;;;;;;;8.95;8.20;;;14.20;97.20;;;;;;1687792;29;20209;-75
2022/10/05 07:09:20;;;;;;;9.20;8.40;;;14.20;97.20;;;;;;1687828;29;20219;-75
2022/10/05 07:10:24;;;;;;;8.50;7.85;;;14.20;97.20;;;;;;1686731;29;20200;-75
2022/10/05 07:11:29;;;;;;;9.30;8.38;;;14.20;97.20;;;;;;1685343;29;20212;-75
2022/10/05 07:12:38;;;;;;;8.05;7.35;;;14.20;97.20;;;;;;1687445;29;20207;-75
2022/10/05 07:13:46;;;;;;;8.43;7.72;;;14.30;97.20;;;;;;1687709;29;20220;-75
2022/10/05 07:14:59;;;;;;;7.68;7.07;;;14.30;97.20;;;;;;1681460;29;20679;-75
2022/10/05 07:15:58;;;;;;;8.43;7.68;;;14.30;97.20;;;;;;1681388;29;20209;-75
2022/10/05 07:17:02;;;;;;;8.15;7.38;;;14.30;97.20;;;;;;1681237;29;20220;-75
2022/10/05 07:18:04;;;;;;;8.38;7.57;;;14.30;97.20;;;;;;1681310;29;20219;-75
2022/10/05 07:19:09;;;;;;;8.68;7.55;;;14.40;97.20;;;;;;1681382;29;20220;-75
2022/10/05 07:20:14;;;;;;;8.52;7.82;;;14.40;97.20;;;;;;1680986;29;20272;-76
2022/10/05 07:21:13;;;;;;;9.05;8.15;;;14.40;97.20;;;;;;1681220;29;20224;-73
2022/10/05 07:22:29;;;;;;;8.15;7.45;;;14.40;97.20;;;;;;1681302;29;20695;-73
2022/10/05 07:23:31;;;;;;;8.23;7.45;;;14.50;97.20;;;;;;1681357;29;20585;-73
2022/10/05 07:24:31;;;;;;;7.53;6.85;;;14.50;97.20;;;;;;1681345;29;20208;-74
2022/10/05 07:25:27;;;;;;;7.45;6.72;;;14.50;97.20;;;;;;1684091;29;20201;-73
2022/10/05 07:26:24;;;;;;;7.88;7.25;;;14.60;97.20;;;;;;1687653;29;20283;-74
2022/10/05 07:27:19;;;;;;;7.55;6.90;;;14.60;97.20;;;;;;1687636;29;20232;-74
2022/10/05 07:28:18;;;;;;;8.07;7.20;;;14.60;97.20;;;;;;1687376;29;20216;-73
2022/10/05 07:29:18;;;;;;;8.32;6.97;;;14.60;97.20;;;;;;1687783;29;20208;-74
2022/10/05 07:30:13;;;;;;;7.00;6.43;;;14.70;97.20;;;;;;1687425;29;20264;-73
2022/10/05 07:31:12;;;;;;;7.45;6.75;;;14.70;97.20;;;;;;1687635;29;20219;-73
2022/10/05 07:32:15;;;;;;;6.68;6.15;;;14.70;97.20;;;;;;1687595;29;20225;-74
2022/10/05 07:33:12;;;;;;;6.75;6.15;;;14.80;97.20;;;;;;1687761;29;20217;-74
2022/10/05 07:34:09;;;;;;;7.10;6.18;;;14.80;97.20;;;;;;1687784;29;20240;-75
2022/10/05 07:35:08;;;;;;;7.15;6.55;;;14.80;97.20;;;;;;1687785;29;20243;-75
2022/10/05 07:38:31;;;;;;;7.25;6.65;;;14.90;97.20;;;;;;1687314;29;20260;-74
2022/10/05 07:39:28;;;;;;;6.78;6.18;;;15.00;97.20;;;;;;1687528;29;20211;-74
2022/10/05 07:40:25;;;;;;;7.80;6.15;;;15.00;97.20;;;;;;1687038;29;20256;-75
2022/10/05 07:41:22;;;;;;;6.22;5.72;;;15.10;97.20;;;;;;1687343;29;20201;-74
2022/10/05 07:42:23;;;;;;;6.97;6.28;;;15.10;97.20;;;;;;1687696;29;20579;-74
2022/10/05 07:43:24;;;;;;;6.00;5.50;;;15.10;97.20;;;;;;1687747;29;20594;-74
2022/10/05 07:44:22;;;;;;;6.80;6.10;;;15.20;97.20;;;;;;1687454;29;22297;-74
2022/10/05 07:45:23;;;;;;;6.00;5.50;;;15.20;97.20;;;;;;1687786;29;20204;-74
2022/10/05 07:46:21;;;;;;;6.40;5.90;;;15.30;97.20;;;;;;1687935;29;20616;-74
2022/10/05 07:47:18;;;;;;;6.43;5.93;;;15.30;97.20;;;;;;1687756;29;20240;-74
2022/10/05 07:48:18;;;;;;;6.65;6.05;;;15.30;97.20;;;;;;1687685;29;20544;-75
2022/10/05 07:49:17;;;;;;;5.85;5.35;;;15.30;97.20;;;;;;1687738;29;20209;-75
2022/10/05 07:50:18;;;;;;;6.22;5.72;;;15.40;97.20;;;;;;1687489;29;20216;-75
2022/10/05 07:51:19;;;;;;;5.90;5.45;;;15.40;97.20;;;;;;1687633;29;20213;-75
2022/10/05 07:52:16;;;;;;;6.18;5.68;;;15.40;97.20;;;;;;1687560;29;20609;-74
2022/10/05 07:53:16;;;;;;;6.03;5.43;;;15.50;97.20;;;;;;1687603;29;20731;-76
2022/10/05 07:54:17;;;;;;;6.18;5.68;;;15.50;97.20;;;;;;1687680;29;20743;-75
2022/10/05 07:55:21;;;;;;;8.85;5.60;;;15.50;97.20;;;;;;1687721;29;20217;-75
2022/10/05 07:56:20;;;;;;;6.32;5.72;;;15.60;97.20;;;;;;1687760;29;20715;-75
2022/10/05 07:57:21;;;;;;;5.95;5.45;;;15.60;97.20;;;;;;1687597;29;20622;-74
2022/10/05 07:58:19;;;;;;;5.97;5.40;;;15.60;97.20;;;;;;1687647;29;20209;-75
2022/10/05 07:59:18;;;;;;;5.97;5.38;;;15.60;97.20;;;;;;1687592;29;20208;-74
2022/10/05 08:00:14;;;;;;;5.82;5.35;;;15.60;97.20;;;;;;1687301;29;20209;-75
2022/10/05 08:01:11;;;;;;;5.47;4.97;;;15.70;97.20;;;;;;1687283;29;20264;-74
2022/10/05 08:02:13;;;;;;;5.50;5.10;;;15.70;97.20;;;;;;1687728;29;20209;-76
2022/10/05 08:03:10;;;;;;;5.57;4.53;;;15.70;97.20;;;;;;1687699;29;20594;-74
2022/10/05 08:04:11;;;;;;;5.57;5.07;;;15.80;97.20;;;;;;1687735;29;20215;-75
2022/10/05 08:05:10;;;;;;;5.90;4.70;;;15.80;97.20;;;;;;1687695;29;20341;-75
2022/10/05 08:06:05;;;;;;;5.60;5.10;;;15.90;97.20;;;;;;1687529;29;20208;-76
2022/10/05 08:07:03;;;;;;;5.65;4.90;;;15.90;97.20;;;;;;1687670;29;20208;-75
2022/10/05 08:08:16;;;;;;;4.90;4.50;;;15.90;97.20;;;;;;1687579;29;20212;-76
2022/10/05 08:09:21;;;;;;;5.13;4.63;;;16.00;97.20;;;;;;1687450;29;20208;-75
2022/10/05 08:10:27;;;;;;;6.50;4.55;;;16.00;97.20;;;;;;1687372;29;20344;-75
2022/10/05 08:11:24;;;;;;;5.43;4.43;;;16.10;97.20;;;;;;1688905;29;20213;-75
2022/10/05 08:12:29;;;;;;;5.07;4.57;;;16.10;97.20;;;;;;1688903;29;20247;-75
2022/10/05 08:13:27;;;;;;;5.40;4.90;;;16.20;97.20;;;;;;1688954;29;20209;-75
2022/10/05 08:14:28;;;;;;;4.78;4.35;;;16.20;97.20;;;;;;1688939;29;20240;-75
2022/10/05 08:15:24;;;;;;;5.20;4.70;;;16.30;97.20;;;;;;1688919;29;20212;-76
2022/10/05 08:16:16;;;;;;;6.13;4.70;;;16.30;97.20;;;;;;1688896;29;20699;-75
2022/10/05 08:17:20;;;;;;;4.90;4.50;;;16.40;97.20;;;;;;1688341;29;20600;-75
2022/10/05 08:18:17;;;;;;;5.15;4.63;;;16.40;97.20;;;;;;1688823;29;20239;-76
2022/10/05 08:19:16;;;;;;;5.85;4.43;;;16.50;97.20;;;;;;1688838;29;20239;-74
2022/10/05 08:20:23;;;;;;;5.80;4.60;;;16.50;97.20;;;;;;1688497;29;20212;-76
2022/10/05 08:21:20;;;;;;;5.05;4.60;;;16.60;97.20;;;;;;1688838;29;20216;-76
2022/10/05 08:22:19;;;;;;;5.38;4.40;;;16.60;97.20;;;;;;1688855;29;20215;-76
2022/10/05 08:23:21;;;;;;;4.78;4.40;;;16.70;97.20;;;;;;1688858;29;20205;-75
2022/10/05 08:24:32;;;;;;;5.10;4.60;;;16.70;97.20;;;;;;1688909;29;20645;-75
2022/10/05 08:25:26;;;;;;;4.80;4.40;;;16.70;97.20;;;;;;1688784;29;20256;-75
2022/10/05 08:26:26;;;;;;;4.70;4.30;;;16.80;97.20;;;;;;1688806;29;20208;-76
2022/10/05 08:27:25;;;;;;;5.35;4.85;;;16.80;97.20;;;;;;1688770;29;20205;-76
2022/10/05 08:28:22;;;;;;;4.30;4.00;;;16.90;97.20;;;;;;1688806;29;20247;-75
2022/10/05 08:29:21;;;;;;;4.93;4.53;;;16.90;97.20;;;;;;1688726;29;20209;-76
2022/10/05 08:30:15;;;;;;;5.50;4.65;;;17.00;97.20;;;;;;1688436;29;20216;-76
2022/10/05 08:31:15;;;;;;;4.18;3.65;;;17.00;97.20;;;;;;1688573;29;20215;-76
2022/10/05 08:32:15;;;;;;;4.53;4.13;;;17.00;97.20;;;;;;1688504;29;20233;-76
2022/10/05 08:33:12;;;;;;;4.13;3.72;;;17.10;97.20;;;;;;1688802;29;20204;-76
2022/10/05 08:34:20;;;;;;;4.20;3.90;;;17.10;97.20;;;;;;1688341;29;20216;-76
2022/10/05 08:35:23;;;;;;;5.50;3.85;;;17.20;97.20;;;;;;1688791;29;20208;-76
2022/10/05 08:36:19;;;;;;;9.63;4.30;;;17.20;97.20;;;;;;1688791;29;20667;-77
2022/10/05 08:37:16;;;;;;;4.00;3.70;;;17.20;97.20;;;;;;1688737;29;20212;-76
2022/10/05 08:38:12;;;;;;;6.18;4.45;;;17.30;97.20;;;;;;1688704;29;20212;-77
2022/10/05 08:39:12;;;;;;;4.40;3.97;;;17.40;97.20;;;;;;1688538;29;20212;-76
2022/10/05 08:40:26;;;;;;;3.95;3.58;;;17.40;97.20;;;;;;1688458;29;20260;-77
2022/10/05 08:41:44;;;;;;;4.32;3.78;;;17.40;97.20;;;;;;1688718;29;20670;-77
2022/10/05 08:43:00;;;;;;;5.15;4.20;;;17.50;97.20;;;;;;1688731;29;20698;-76
2022/10/05 08:44:12;;;;;;;3.72;3.28;;;17.60;97.20;;;;;;1688817;29;20659;-76
2022/10/05 08:45:44;;;;;;;4.28;3.80;;;17.70;97.20;;;;;;1688759;29;20255;-76
2022/10/05 08:46:56;;;;;;;3.60;3.30;;;17.80;97.20;;;;;;1688683;29;20691;-76
2022/10/05 08:48:37;;;;;;;3.60;3.30;;;17.90;97.20;;;;;;1688618;29;20207;-76
2022/10/05 08:50:01;;;;;;;4.70;3.50;;;18.00;97.20;;;;;;1675114;29;20202;-76
2022/10/05 08:51:32;;;;;;;5.47;2.97;;;18.00;97.20;;;;;;1680050;29;20226;-76
2022/10/05 08:52:27;;;;;;;3.30;2.97;;;18.10;97.20;;;;;;1688582;29;20268;-76
2022/10/05 08:53:39;;;;;;;6.47;3.50;;;18.20;97.20;;;;;;1688728;29;20200;-76
2022/10/05 08:55:07;;;;;;;3.05;2.85;;;18.30;97.20;;;;;;1688607;29;20212;-76
2022/10/05 08:56:23;;;;;;;3.50;3.20;;;18.40;97.20;;;;;;1679917;29;20637;-76
2022/10/05 08:57:32;;;;;;;2.80;2.60;;;18.50;97.20;;;;;;1688587;29;20213;-76
2022/10/05 08:58:51;;;;;;;3.55;3.25;;;18.60;97.20;;;;;;1688744;29;20212;-76
2022/10/05 09:00:04;;;;;;;3.47;3.17;;;18.70;97.20;;;;;;1688598;29;20223;-76
2022/10/05 09:01:04;;;;;;;3.67;3.20;;;18.80;97.20;;;;;;1688484;29;20247;-76
2022/10/05 09:02:18;;;;;;;4.00;3.70;;;18.80;97.20;;;;;;1688649;29;20295;-76
2022/10/05 09:03:39;;;;;;;3.45;3.15;;;18.90;97.20;;;;;;1688624;29;20205;-76
2022/10/05 09:04:47;;;;;;;3.15;2.95;;;18.90;97.20;;;;;;1682528;29;20671;-75
2022/10/05 09:06:15;;;;;;;4.75;3.25;;;19.00;97.20;;;;;;1686565;29;20204;-76
2022/10/05 09:07:18;;;;;;;3.20;2.90;;;19.10;97.20;;;;;;1685645;29;20668;-76
2022/10/05 09:08:30;;;;;;;3.53;2.70;;;19.10;97.20;;;;;;1681383;29;20232;-75
2022/10/05 09:09:36;;;;;;;3.55;3.20;;;19.20;97.20;;;;;;1682389;29;20610;-76
2022/10/05 09:11:03;;;;;;;2.97;2.67;;;19.20;97.20;;;;;;1694261;29;20208;-76
2022/10/05 09:12:18;;;;;;;3.58;2.90;;;19.30;97.20;;;;;;1688465;29;20231;-76
2022/10/05 09:13:40;;;;;;;3.28;2.97;;;19.40;97.20;;;;;;1688131;29;20741;-76
2022/10/05 09:14:44;;;;;;;3.58;3.08;;;19.50;97.20;;;;;;1688174;29;20208;-76
2022/10/05 09:16:09;;;;;;;2.80;2.60;;;19.60;97.20;;;;;;1688284;29;20232;-76
2022/10/05 09:17:20;;;;;;;2.60;2.40;;;19.70;97.20;;;;;;1674306;29;20206;-76
2022/10/05 09:18:48;;;;;;;2.90;2.60;;;19.80;97.20;;;;;;1688202;29;20726;-76
2022/10/05 09:20:04;;;;;;;2.80;2.60;;;19.90;97.20;;;;;;1688355;29;20209;-76
2022/10/05 09:21:05;;;;;;;3.15;2.88;;;20.00;97.20;;;;;;1688401;29;21008;-76
2022/10/05 09:22:13;;;;;;;2.70;2.47;;;20.00;97.20;;;;;;1687947;29;20212;-76
2022/10/05 09:23:35;;;;;;;3.47;2.40;;;20.10;97.20;;;;;;1687290;29;20232;-76
2022/10/05 09:24:33;;;;;;;3.55;2.40;;;20.20;97.20;;;;;;1681938;29;20585;-76
2022/10/05 09:25:41;;;;;;;2.42;2.20;;;20.20;97.20;;;;;;1681957;29;20205;-75
2022/10/05 09:26:44;;;;;;;3.85;2.60;;;20.30;97.20;;;;;;1682089;29;20570;-76
2022/10/05 09:27:37;;;;;;;4.15;2.38;;;20.40;97.20;;;;;;1682018;29;20216;-76
2022/10/05 09:28:34;;;;;;;3.33;3.03;;;20.40;97.20;;;;;;1681973;29;20563;-76
2022/10/05 09:30:01;;;;;;;4.40;2.33;;;20.50;97.20;;;;;;1682374;29;20210;-76
2022/10/05 09:31:16;;;;;;;2.60;2.40;;;20.60;97.20;;;;;;1682490;29;20233;-76
2022/10/05 09:32:34;;;;;;;3.05;2.60;;;20.70;97.20;;;;;;1682283;29;20209;-76
2022/10/05 09:33:52;;;;;;;2.60;2.40;;;20.80;97.20;;;;;;1681913;29;20217;-76
2022/10/05 09:35:07;;;;;;;2.70;2.50;;;20.90;97.20;;;;;;1681756;29;20213;-76
2022/10/05 09:36:36;;;;;;;2.80;2.60;;;21.10;97.20;;;;;;1681713;29;20220;-76
2022/10/05 09:38:03;;;;;;;3.20;2.90;;;21.20;97.20;;;;;;1681663;29;20206;-76
2022/10/05 09:39:35;;;;;;;2.08;1.98;;;21.30;97.20;;;;;;1681800;29;20590;-76
2022/10/05 09:41:16;;;;;;;2.28;2.05;;;21.50;97.20;;;;;;1681501;29;20206;-76
2022/10/05 09:42:36;;;;;;;5.57;2.90;;;21.60;97.20;;;;;;1681478;29;20212;-75
2022/10/05 09:43:57;;;;;;;2.22;2.13;;;21.70;97.20;;;;;;1681348;29;20672;-76
2022/10/05 09:45:25;;;;;;;2.55;2.35;;;21.80;97.20;;;;;;1681828;29;20876;-76
2022/10/05 09:46:57;;;;;;;2.38;1.90;;;22.00;97.20;;;;;;1681918;29;20213;-76
2022/10/05 09:48:15;;;;;;;2.58;2.03;;;22.10;97.20;;;;;;1681785;29;20571;-76
2022/10/05 09:49:38;;;;;;;2.22;2.13;;;22.00;97.20;;;;;;1687410;29;20229;-76
2022/10/05 09:51:19;;;;;;;3.50;2.35;;;22.10;97.20;;;;;;1687617;29;20667;-76
2022/10/05 09:52:32;;;;;;;3.08;1.90;;;22.20;97.20;;;;;;1688294;29;20212;-76
2022/10/05 09:54:13;;;;;;;2.17;2.00;;;22.40;97.20;;;;;;1688415;29;20201;-76
2022/10/05 09:55:42;;;;;;;3.53;2.88;;;22.50;97.20;;;;;;1687975;29;20280;-76
2022/10/05 09:56:57;;;;;;;2.60;2.40;;;22.80;97.20;;;;;;1687952;29;20205;-76
2022/10/05 09:58:28;;;;;;;2.45;2.25;;;22.90;97.20;;;;;;1688048;29;20208;-76
2022/10/05 09:59:54;;;;;;;2.13;2.00;;;23.10;97.20;;;;;;1674442;29;20230;-76
2022/10/05 10:01:05;;;;;;;2.55;2.20;;;23.20;97.20;;;;;;1677666;29;20255;-76
2022/10/05 10:02:16;;;;;;;2.10;1.83;;;23.30;97.20;;;;;;1688145;29;20205;-76
2022/10/05 10:03:44;;;;;;;11.68;2.33;;;23.30;97.20;;;;;;1687913;29;20209;-76
2022/10/05 10:05:02;;;;;;;3.40;2.40;;;23.40;97.20;;;;;;1687914;29;20615;-75
2022/10/05 10:06:16;;;;;;;2.30;2.10;;;23.50;97.20;;;;;;1688246;29;20223;-76
2022/10/05 10:07:32;;;;;;;2.00;1.80;;;23.60;97.20;;;;;;1688069;29;20201;-75
2022/10/05 10:08:35;;;;;;;2.20;1.95;;;23.80;97.20;;;;;;1688095;29;20232;-76
2022/10/05 10:09:38;;;;;;;2.17;2.03;;;24.00;97.20;;;;;;1687790;29;20275;-76
2022/10/05 10:11:00;;;;;;;3.03;2.80;;;24.10;97.20;;;;;;1687488;29;20205;-76
2022/10/05 10:12:16;;;;;;;2.20;2.00;;;24.30;97.20;;;;;;1688165;29;20201;-76
2022/10/05 10:13:37;;;;;;;2.58;2.30;;;24.30;97.20;;;;;;1688017;29;20601;-76
2022/10/05 10:15:05;;;;;;;3.22;2.45;;;24.40;97.20;;;;;;1687674;29;20671;-76
2022/10/05 10:16:09;;;;;;;3.97;2.30;;;24.40;97.20;;;;;;1686885;29;20213;-76
2022/10/05 10:17:24;;;;;;;1.77;1.65;;;24.50;97.20;;;;;;1687385;29;20577;-76
2022/10/05 10:18:28;;;;;;;2.40;2.00;;;24.40;97.20;;;;;;1687874;29;20211;-76
2022/10/05 10:19:38;;;;;;;1.92;1.83;;;24.50;97.20;;;;;;1688073;29;20205;-75
2022/10/05 10:21:00;;;;;;;2.70;2.00;;;24.50;97.20;;;;;;1687528;29;20201;-76
2022/10/05 10:22:10;;;;;;;3.38;2.00;;;24.60;97.20;;;;;;1686413;29;20205;-76
2022/10/05 10:23:27;;;;;;;2.20;2.00;;;24.70;97.20;;;;;;1687807;29;20204;-76
2022/10/05 10:24:37;;;;;;;7.07;1.88;;;24.80;97.20;;;;;;1687803;29;20625;-76
2022/10/05 10:25:51;;;;;;;2.00;1.90;;;24.80;97.20;;;;;;1688021;29;20216;-76
2022/10/05 10:27:15;;;;;;;2.33;2.13;;;24.80;97.20;;;;;;1687919;29;20577;-76
2022/10/05 10:28:41;;;;;;;2.33;2.13;;;24.90;97.20;;;;;;1687982;29;20212;-76
2022/10/05 10:30:02;;;;;;;3.72;1.50;;;25.00;97.20;;;;;;1687498;29;20205;-76
2022/10/05 10:31:25;;;;;;;2.17;1.98;;;25.10;97.20;;;;;;1687233;29;20892;-76
2022/10/05 10:32:43;;;;;;;2.08;1.75;;;25.20;97.20;;;;;;1687937;29;20213;-76
2022/10/05 10:34:08;;;;;;;1.85;1.75;;;25.40;97.20;;;;;;1687355;29;20205;-75
2022/10/05 10:35:18;;;;;;;4.18;1.92;;;25.50;97.20;;;;;;1678068;29;20217;-76
2022/10/05 10:36:16;;;;;;;3.53;2.08;;;25.80;97.20;;;;;;1687782;29;20196;-76
2022/10/05 10:37:41;;;;;;;2.95;1.90;;;25.90;97.20;;;;;;1687613;29;20699;-76
2022/10/05 10:38:53;;;;;;;4.25;1.70;;;26.00;97.20;;;;;;1674052;29;20289;-75
2022/10/05 10:40:08;;;;;;;1.50;1.40;;;26.10;97.20;;;;;;1687817;29;20212;-76
2022/10/05 10:41:30;;;;;;;1.90;1.73;;;26.20;97.20;;;;;;1687776;29;20244;-75
2022/10/05 10:42:39;;;;;;;3.60;1.85;;;26.20;97.20;;;;;;1684663;29;20208;-75
2022/10/05 10:44:02;;;;;;;2.20;1.60;;;26.20;97.20;;;;;;1687688;29;20212;-73
2022/10/05 10:45:14;;;;;;;1.77;1.67;;;26.30;97.20;;;;;;1673720;29;20241;-75